sensor_id;sensor_type;location;lat;lon;timestamp;pressure;altitude;pressure_sealevel;temperature
41654;BMP280;30790;52.030;7.110;2022-12-07T00:01:19;100862.78;;;19.61
41654;BMP280;30790;52.030;7.110;2022-12-07T00:03:47;100865.50;;;19.61
41654;BMP280;30790;52.030;7.110;2022-12-07T00:06:14;100867.66;;;19.59
41654;BMP280;30790;52.030;7.110;2022-12-07T00:08:39;100861.25;;;19.53
41654;BMP280;30790;52.030;7.110;2022-12-07T00:11:11;100861.63;;;19.57
41654;BMP280;30790;52.030;7.110;2022-12-07T00:13:38;100858.66;;;19.58
41654;BMP280;30790;52.030;7.110;2022-12-07T00:16:06;100864.09;;;19.58
41654;BMP280;30790;52.030;7.110;2022-12-07T00:18:31;100857.47;;;19.54
41654;BMP280;30790;52.030;7.110;2022-12-07T00:21:46;100852.03;;;19.54
41654;BMP280;30790;52.030;7.110;2022-12-07T00:23:54;100857.69;;;19.53
41654;BMP280;30790;52.030;7.110;2022-12-07T00:26:25;100853.53;;;19.50
41654;BMP280;30790;52.030;7.110;2022-12-07T00:28:54;100846.19;;;19.51
41654;BMP280;30790;52.030;7.110;2022-12-07T00:31:22;100849.50;;;19.53
41654;BMP280;30790;52.030;7.110;2022-12-07T00:33:48;100846.19;;;19.51
41654;BMP280;30790;52.030;7.110;2022-12-07T00:36:16;100845.03;;;19.47
41654;BMP280;30790;52.030;7.110;2022-12-07T00:38:42;100840.03;;;19.43
41654;BMP280;30790;52.030;7.110;2022-12-07T00:41:10;100844.63;;;19.43
41654;BMP280;30790;52.030;7.110;2022-12-07T00:43:36;100837.19;;;19.38
41654;BMP280;30790;52.030;7.110;2022-12-07T00:46:01;100838.38;;;19.42
41654;BMP280;30790;52.030;7.110;2022-12-07T00:48:27;100831.25;;;19.41
41654;BMP280;30790;52.030;7.110;2022-12-07T00:50:52;100831.25;;;19.41
41654;BMP280;30790;52.030;7.110;2022-12-07T00:53:17;100829.84;;;19.39
41654;BMP280;30790;52.030;7.110;2022-12-07T00:55:43;100835.03;;;19.40
41654;BMP280;30790;52.030;7.110;2022-12-07T00:58:09;100832.22;;;19.35
41654;BMP280;30790;52.030;7.110;2022-12-07T01:00:36;100833.41;;;19.39
41654;BMP280;30790;52.030;7.110;2022-12-07T01:03:03;100838.25;;;19.37
41654;BMP280;30790;52.030;7.110;2022-12-07T01:05:28;100836.84;;;19.35
41654;BMP280;30790;52.030;7.110;2022-12-07T01:07:53;100833.75;;;19.31
41654;BMP280;30790;52.030;7.110;2022-12-07T01:10:18;100836.25;;;19.33
41654;BMP280;30790;52.030;7.110;2022-12-07T01:12:44;100824.53;;;19.32
41654;BMP280;30790;52.030;7.110;2022-12-07T01:15:09;100829.38;;;19.30
41654;BMP280;30790;52.030;7.110;2022-12-07T01:17:34;100823.09;;;19.30
41654;BMP280;30790;52.030;7.110;2022-12-07T01:20:00;100818.13;;;19.27
41654;BMP280;30790;52.030;7.110;2022-12-07T01:22:26;100823.81;;;19.25
41654;BMP280;30790;52.030;7.110;2022-12-07T01:24:51;100825.25;;;19.28
41654;BMP280;30790;52.030;7.110;2022-12-07T01:27:16;100832.22;;;19.24
41654;BMP280;30790;52.030;7.110;2022-12-07T01:29:42;100831.50;;;19.28
41654;BMP280;30790;52.030;7.110;2022-12-07T01:32:07;100833.63;;;19.26
41654;BMP280;30790;52.030;7.110;2022-12-07T01:34:32;100839.91;;;19.27
41654;BMP280;30790;52.030;7.110;2022-12-07T01:36:58;100825.94;;;19.23
41654;BMP280;30790;52.030;7.110;2022-12-07T01:39:23;100823.69;;;19.20
41654;BMP280;30790;52.030;7.110;2022-12-07T01:41:49;100833.03;;;19.24
41654;BMP280;30790;52.030;7.110;2022-12-07T01:44:25;100833.41;;;19.28
41654;BMP280;30790;52.030;7.110;2022-12-07T01:52:25;100844.66;;;19.20
41654;BMP280;30790;52.030;7.110;2022-12-07T01:54:56;100841.44;;;19.23
41654;BMP280;30790;52.030;7.110;2022-12-07T01:57:23;100831.28;;;19.18
41654;BMP280;30790;52.030;7.110;2022-12-07T01:59:51;100834.69;;;19.13
41654;BMP280;30790;52.030;7.110;2022-12-07T02:02:29;100840.03;;;19.20
41654;BMP280;30790;52.030;7.110;2022-12-07T02:04:59;100832.31;;;19.17
41654;BMP280;30790;52.030;7.110;2022-12-07T02:07:26;100828.16;;;19.14
41654;BMP280;30790;52.030;7.110;2022-12-07T02:09:52;100827.34;;;19.14
41654;BMP280;30790;52.030;7.110;2022-12-07T02:12:18;100824.63;;;19.14
41654;BMP280;30790;52.030;7.110;2022-12-07T02:14:44;100831.97;;;19.13
41654;BMP280;30790;52.030;7.110;2022-12-07T02:17:21;100827.81;;;19.11
41654;BMP280;30790;52.030;7.110;2022-12-07T02:20:23;100833.84;;;19.13
41654;BMP280;30790;52.030;7.110;2022-12-07T02:23:23;100835.50;;;19.14
41654;BMP280;30790;52.030;7.110;2022-12-07T02:31:46;100826.97;;;19.10
41654;BMP280;30790;52.030;7.110;2022-12-07T02:34:26;100831.38;;;19.11
41654;BMP280;30790;52.030;7.110;2022-12-07T02:36:57;100828.28;;;19.08
41654;BMP280;30790;52.030;7.110;2022-12-07T02:39:46;100829.94;;;19.09
41654;BMP280;30790;52.030;7.110;2022-12-07T02:42:26;100826.88;;;19.05
41654;BMP280;30790;52.030;7.110;2022-12-07T02:44:54;100824.38;;;19.04
41654;BMP280;30790;52.030;7.110;2022-12-07T02:47:21;100828.53;;;19.06
41654;BMP280;30790;52.030;7.110;2022-12-07T02:49:49;100828.28;;;19.08
41654;BMP280;30790;52.030;7.110;2022-12-07T02:52:14;100826.50;;;19.02
41654;BMP280;30790;52.030;7.110;2022-12-07T02:54:39;100836.31;;;19.03
41654;BMP280;30790;52.030;7.110;2022-12-07T02:57:18;100827.94;;;19.04
41654;BMP280;30790;52.030;7.110;2022-12-07T03:02:52;100831.72;;;19.03
41654;BMP280;30790;52.030;7.110;2022-12-07T03:05:49;100833.84;;;19.01
41654;BMP280;30790;52.030;7.110;2022-12-07T03:08:39;100829.22;;;19.02
41654;BMP280;30790;52.030;7.110;2022-12-07T03:11:15;100825.31;;;18.98
41654;BMP280;30790;52.030;7.110;2022-12-07T03:13:59;100826.16;;;18.98
41654;BMP280;30790;52.030;7.110;2022-12-07T03:16:33;100812.56;;;18.98
41654;BMP280;30790;52.030;7.110;2022-12-07T03:19:08;100820.72;;;18.98
41654;BMP280;30790;52.030;7.110;2022-12-07T03:21:39;100816.56;;;18.96
41654;BMP280;30790;52.030;7.110;2022-12-07T03:24:10;100822.97;;;19.01
41654;BMP280;30790;52.030;7.110;2022-12-07T03:26:41;100811.59;;;18.93
41654;BMP280;30790;52.030;7.110;2022-12-07T03:29:12;100814.09;;;18.94
41654;BMP280;30790;52.030;7.110;2022-12-07T03:31:41;100811.97;;;18.96
41654;BMP280;30790;52.030;7.110;2022-12-07T03:34:14;100809.13;;;18.91
41654;BMP280;30790;52.030;7.110;2022-12-07T03:36:58;100824.13;;;18.94
41654;BMP280;30790;52.030;7.110;2022-12-07T03:42:26;100801.16;;;18.90
41654;BMP280;30790;52.030;7.110;2022-12-07T03:44:51;100801.16;;;18.90
41654;BMP280;30790;52.030;7.110;2022-12-07T03:52:47;100802.38;;;18.94
41654;BMP280;30790;52.030;7.110;2022-12-07T03:55:19;100802.38;;;18.94
41654;BMP280;30790;52.030;7.110;2022-12-07T03:57:47;100801.44;;;19.00
41654;BMP280;30790;52.030;7.110;2022-12-07T04:00:15;100803.69;;;19.03
41654;BMP280;30790;52.030;7.110;2022-12-07T04:02:41;100804.03;;;19.06
41654;BMP280;30790;52.030;7.110;2022-12-07T04:05:07;100803.31;;;19.11
41654;BMP280;30790;52.030;7.110;2022-12-07T04:07:32;100803.31;;;19.11
41654;BMP280;30790;52.030;7.110;2022-12-07T04:09:58;100795.41;;;19.09
41654;BMP280;30790;52.030;7.110;2022-12-07T04:12:23;100797.41;;;19.14
41654;BMP280;30790;52.030;7.110;2022-12-07T04:14:49;100805.72;;;19.19
41654;BMP280;30790;52.030;7.110;2022-12-07T04:17:14;100801.34;;;19.18
41654;BMP280;30790;52.030;7.110;2022-12-07T04:19:40;100793.03;;;19.13
41654;BMP280;30790;52.030;7.110;2022-12-07T04:22:06;100808.19;;;19.21
41654;BMP280;30790;52.030;7.110;2022-12-07T04:24:31;100796.50;;;19.20
41654;BMP280;30790;52.030;7.110;2022-12-07T04:26:57;100801.09;;;19.20
41654;BMP280;30790;52.030;7.110;2022-12-07T04:29:22;100800.28;;;19.19
41654;BMP280;30790;52.030;7.110;2022-12-07T04:31:48;100816.72;;;19.24
41654;BMP280;30790;52.030;7.110;2022-12-07T04:34:14;100809.03;;;19.21
41654;BMP280;30790;52.030;7.110;2022-12-07T04:36:40;100814.00;;;19.24
41654;BMP280;30790;52.030;7.110;2022-12-07T04:39:07;100805.34;;;19.27
41654;BMP280;30790;52.030;7.110;2022-12-07T04:41:33;100808.91;;;19.28
41654;BMP280;30790;52.030;7.110;2022-12-07T04:44:00;100810.31;;;19.30
41654;BMP280;30790;52.030;7.110;2022-12-07T04:46:28;100795.31;;;19.28
41654;BMP280;30790;52.030;7.110;2022-12-07T04:48:54;100807.84;;;19.29
41654;BMP280;30790;52.030;7.110;2022-12-07T04:51:26;100813.63;;;19.32
41654;BMP280;30790;52.030;7.110;2022-12-07T04:53:52;100815.06;;;19.35
41654;BMP280;30790;52.030;7.110;2022-12-07T04:56:18;100814.22;;;19.34
41654;BMP280;30790;52.030;7.110;2022-12-07T04:58:44;100812.91;;;19.37
41654;BMP280;30790;52.030;7.110;2022-12-07T05:01:11;100810.44;;;19.35
41654;BMP280;30790;52.030;7.110;2022-12-07T05:03:36;100804.28;;;19.40
41654;BMP280;30790;52.030;7.110;2022-12-07T05:06:02;100801.78;;;19.38
41654;BMP280;30790;52.030;7.110;2022-12-07T05:08:28;100790.31;;;19.36
41654;BMP280;30790;52.030;7.110;2022-12-07T05:10:53;100804.03;;;19.41
41654;BMP280;30790;52.030;7.110;2022-12-07T05:13:18;100796.47;;;19.43
41654;BMP280;30790;52.030;7.110;2022-12-07T05:15:44;100800.84;;;19.44
41654;BMP280;30790;52.030;7.110;2022-12-07T05:18:10;100797.91;;;19.46
41654;BMP280;30790;52.030;7.110;2022-12-07T05:20:38;100792.09;;;19.42
41654;BMP280;30790;52.030;7.110;2022-12-07T05:23:03;100795.41;;;19.44
41654;BMP280;30790;52.030;7.110;2022-12-07T05:25:28;100795.63;;;19.43
41654;BMP280;30790;52.030;7.110;2022-12-07T05:27:55;100805.00;;;19.47
41654;BMP280;30790;52.030;7.110;2022-12-07T05:30:20;100801.31;;;19.41
41654;BMP280;30790;52.030;7.110;2022-12-07T05:32:46;100802.53;;;19.45
41654;BMP280;30790;52.030;7.110;2022-12-07T05:35:11;100808.56;;;19.48
41654;BMP280;30790;52.030;7.110;2022-12-07T05:37:36;100798.97;;;19.45
41654;BMP280;30790;52.030;7.110;2022-12-07T05:40:03;100797.53;;;19.42
41654;BMP280;30790;52.030;7.110;2022-12-07T05:42:28;100794.34;;;19.45
41654;BMP280;30790;52.030;7.110;2022-12-07T05:44:53;100798.25;;;19.50
41654;BMP280;30790;52.030;7.110;2022-12-07T05:47:18;100792.66;;;19.44
41654;BMP280;30790;52.030;7.110;2022-12-07T05:49:44;100789.75;;;19.46
41654;BMP280;30790;52.030;7.110;2022-12-07T05:52:09;100787.84;;;19.47
41654;BMP280;30790;52.030;7.110;2022-12-07T05:54:34;100775.75;;;19.42
41654;BMP280;30790;52.030;7.110;2022-12-07T05:57:00;100773.25;;;19.41
41654;BMP280;30790;52.030;7.110;2022-12-07T05:59:25;100786.19;;;19.45
41654;BMP280;30790;52.030;7.110;2022-12-07T06:04:19;100773.84;;;19.43
41654;BMP280;30790;52.030;7.110;2022-12-07T06:06:45;100778.13;;;19.39
41654;BMP280;30790;52.030;7.110;2022-12-07T06:09:10;100781.78;;;19.44
41654;BMP280;30790;52.030;7.110;2022-12-07T06:11:37;100780.94;;;19.44
41654;BMP280;30790;52.030;7.110;2022-12-07T06:14:20;100780.13;;;19.43
41654;BMP280;30790;52.030;7.110;2022-12-07T06:16:46;100785.13;;;19.47
41654;BMP280;30790;52.030;7.110;2022-12-07T06:19:11;100791.00;;;19.43
41654;BMP280;30790;52.030;7.110;2022-12-07T06:21:37;100792.09;;;19.42
41654;BMP280;30790;52.030;7.110;2022-12-07T06:24:02;100788.09;;;19.45
41654;BMP280;30790;52.030;7.110;2022-12-07T06:26:27;100796.69;;;19.42
41654;BMP280;30790;52.030;7.110;2022-12-07T06:28:53;100797.53;;;19.42
41654;BMP280;30790;52.030;7.110;2022-12-07T06:31:18;100795.41;;;19.44
41654;BMP280;30790;52.030;7.110;2022-12-07T06:33:44;100798.25;;;19.50
41654;BMP280;30790;52.030;7.110;2022-12-07T06:36:09;100800.25;;;19.66
41654;BMP280;30790;52.030;7.110;2022-12-07T06:38:35;100797.28;;;19.79
41654;BMP280;30790;52.030;7.110;2022-12-07T06:41:00;100794.88;;;19.94
41654;BMP280;30790;52.030;7.110;2022-12-07T06:43:25;100782.41;;;19.98
41654;BMP280;30790;52.030;7.110;2022-12-07T06:45:51;100793.19;;;20.05
41654;BMP280;30790;52.030;7.110;2022-12-07T06:48:16;100796.84;;;20.11
41654;BMP280;30790;52.030;7.110;2022-12-07T06:50:44;100797.03;;;20.21
41654;BMP280;30790;52.030;7.110;2022-12-07T06:53:09;100797.25;;;20.31
41654;BMP280;30790;52.030;7.110;2022-12-07T06:55:35;100795.81;;;20.40
41654;BMP280;30790;52.030;7.110;2022-12-07T06:58:00;100800.19;;;20.41
41654;BMP280;30790;52.030;7.110;2022-12-07T07:00:26;100801.94;;;20.47
41654;BMP280;30790;52.030;7.110;2022-12-07T07:02:52;100806.31;;;20.48
41654;BMP280;30790;52.030;7.110;2022-12-07T07:05:17;100807.97;;;20.49
41654;BMP280;30790;52.030;7.110;2022-12-07T07:07:42;100814.13;;;20.56
41654;BMP280;30790;52.030;7.110;2022-12-07T07:10:08;100815.53;;;20.59
41654;BMP280;30790;52.030;7.110;2022-12-07T07:12:33;100814.47;;;20.60
41654;BMP280;30790;52.030;7.110;2022-12-07T07:14:58;100818.09;;;20.65
41654;BMP280;30790;52.030;7.110;2022-12-07T07:17:24;100816.19;;;20.66
41654;BMP280;30790;52.030;7.110;2022-12-07T07:19:49;100809.91;;;20.65
41654;BMP280;30790;52.030;7.110;2022-12-07T07:22:14;100814.53;;;20.65
41654;BMP280;30790;52.030;7.110;2022-12-07T07:24:39;100823.31;;;20.67
41654;BMP280;30790;52.030;7.110;2022-12-07T07:27:05;100813.97;;;20.63
41654;BMP280;30790;52.030;7.110;2022-12-07T07:29:31;100812.56;;;20.60
41654;BMP280;30790;52.030;7.110;2022-12-07T07:31:56;100816.44;;;20.36
41654;BMP280;30790;52.030;7.110;2022-12-07T07:34:21;100818.47;;;20.00
41654;BMP280;30790;52.030;7.110;2022-12-07T07:36:47;100820.38;;;19.88
41654;BMP280;30790;52.030;7.110;2022-12-07T07:39:12;100814.94;;;19.65
41654;BMP280;30790;52.030;7.110;2022-12-07T07:41:37;100815.09;;;19.58
41654;BMP280;30790;52.030;7.110;2022-12-07T07:44:03;100818.38;;;19.49
41654;BMP280;30790;52.030;7.110;2022-12-07T07:46:28;100815.66;;;19.25
41654;BMP280;30790;52.030;7.110;2022-12-07T07:48:53;100813.03;;;19.30
41654;BMP280;30790;52.030;7.110;2022-12-07T07:51:19;100817.53;;;19.25
41654;BMP280;30790;52.030;7.110;2022-12-07T07:53:44;100828.06;;;19.33
41654;BMP280;30790;52.030;7.110;2022-12-07T07:56:09;100818.00;;;19.33
41654;BMP280;30790;52.030;7.110;2022-12-07T07:58:34;100824.66;;;19.26
41654;BMP280;30790;52.030;7.110;2022-12-07T08:01:05;100834.69;;;19.37
41654;BMP280;30790;52.030;7.110;2022-12-07T08:03:30;100829.03;;;19.27
41654;BMP280;30790;52.030;7.110;2022-12-07T08:05:55;100834.78;;;19.07
41654;BMP280;30790;52.030;7.110;2022-12-07T08:08:21;100831.72;;;19.03
41654;BMP280;30790;52.030;7.110;2022-12-07T08:10:46;100830.63;;;18.93
41654;BMP280;30790;52.030;7.110;2022-12-07T08:13:11;100820.91;;;18.85
41654;BMP280;30790;52.030;7.110;2022-12-07T08:15:43;100822.19;;;18.82
41654;BMP280;30790;52.030;7.110;2022-12-07T08:18:08;100830.88;;;18.91
41654;BMP280;30790;52.030;7.110;2022-12-07T08:20:35;100825.66;;;18.90
41654;BMP280;30790;52.030;7.110;2022-12-07T08:23:01;100832.78;;;18.91
41654;BMP280;30790;52.030;7.110;2022-12-07T08:25:27;100810.78;;;18.92
41654;BMP280;30790;52.030;7.110;2022-12-07T08:27:53;100820.63;;;19.28
41654;BMP280;30790;52.030;7.110;2022-12-07T08:30:19;100824.56;;;19.56
41654;BMP280;30790;52.030;7.110;2022-12-07T08:32:44;100823.19;;;19.93
41654;BMP280;30790;52.030;7.110;2022-12-07T08:35:10;100818.16;;;20.14
41654;BMP280;30790;52.030;7.110;2022-12-07T08:37:36;100821.22;;;20.29
41654;BMP280;30790;52.030;7.110;2022-12-07T08:40:02;100838.56;;;20.40
41654;BMP280;30790;52.030;7.110;2022-12-07T08:42:28;100820.00;;;20.36
41654;BMP280;30790;52.030;7.110;2022-12-07T08:44:57;100823.41;;;20.44
41654;BMP280;30790;52.030;7.110;2022-12-07T08:47:23;100829.34;;;20.41
41654;BMP280;30790;52.030;7.110;2022-12-07T08:49:51;100828.03;;;20.43
41654;BMP280;30790;52.030;7.110;2022-12-07T08:52:17;100825.69;;;20.35
41654;BMP280;30790;52.030;7.110;2022-12-07T08:54:42;100838.94;;;20.43
41654;BMP280;30790;52.030;7.110;2022-12-07T08:57:09;100830.03;;;20.48
41654;BMP280;30790;52.030;7.110;2022-12-07T08:59:35;100826.56;;;20.52
41654;BMP280;30790;52.030;7.110;2022-12-07T09:02:02;100837.84;;;20.56
41654;BMP280;30790;52.030;7.110;2022-12-07T09:04:28;100835.94;;;20.56
41654;BMP280;30790;52.030;7.110;2022-12-07T09:06:54;100834.63;;;20.59
41654;BMP280;30790;52.030;7.110;2022-12-07T09:09:19;100825.63;;;20.58
41654;BMP280;30790;52.030;7.110;2022-12-07T09:11:44;100833.31;;;20.61
41654;BMP280;30790;52.030;7.110;2022-12-07T09:14:10;100838.19;;;20.59
41654;BMP280;30790;52.030;7.110;2022-12-07T09:16:35;100829.41;;;20.57
41654;BMP280;30790;52.030;7.110;2022-12-07T09:19:01;100834.72;;;20.64
41654;BMP280;30790;52.030;7.110;2022-12-07T09:21:26;100833.78;;;20.58
41654;BMP280;30790;52.030;7.110;2022-12-07T09:23:51;100827.75;;;20.56
41654;BMP280;30790;52.030;7.110;2022-12-07T09:26:17;100834.88;;;20.57
41654;BMP280;30790;52.030;7.110;2022-12-07T09:28:42;100837.84;;;20.56
41654;BMP280;30790;52.030;7.110;2022-12-07T09:31:07;100841.66;;;20.55
41654;BMP280;30790;52.030;7.110;2022-12-07T09:33:33;100837.47;;;20.52
41654;BMP280;30790;52.030;7.110;2022-12-07T09:35:58;100829.28;;;20.52
41654;BMP280;30790;52.030;7.110;2022-12-07T09:38:23;100831.09;;;20.47
41654;BMP280;30790;52.030;7.110;2022-12-07T09:40:51;100822.59;;;20.43
41654;BMP280;30790;52.030;7.110;2022-12-07T09:43:20;100833.00;;;20.46
41654;BMP280;30790;52.030;7.110;2022-12-07T09:45:47;100831.59;;;20.44
41654;BMP280;30790;52.030;7.110;2022-12-07T09:48:18;100825.81;;;20.40
41654;BMP280;30790;52.030;7.110;2022-12-07T09:50:46;100831.47;;;20.38
41654;BMP280;30790;52.030;7.110;2022-12-07T09:53:18;100834.44;;;20.37
41654;BMP280;30790;52.030;7.110;2022-12-07T09:55:45;100827.72;;;20.28
41654;BMP280;30790;52.030;7.110;2022-12-07T09:58:25;100824.75;;;20.29
41654;BMP280;30790;52.030;7.110;2022-12-07T10:01:11;100828.78;;;20.27
41654;BMP280;30790;52.030;7.110;2022-12-07T10:03:39;100829.00;;;20.25
41654;BMP280;30790;52.030;7.110;2022-12-07T10:06:06;100821.31;;;20.22
41654;BMP280;30790;52.030;7.110;2022-12-07T10:08:32;100828.44;;;20.23
41654;BMP280;30790;52.030;7.110;2022-12-07T10:11:01;100817.91;;;20.15
41654;BMP280;30790;52.030;7.110;2022-12-07T10:16:01;100810.56;;;20.16
41654;BMP280;30790;52.030;7.110;2022-12-07T10:18:32;100817.69;;;20.17
41654;BMP280;30790;52.030;7.110;2022-12-07T10:23:28;100810.22;;;20.12
41654;BMP280;30790;52.030;7.110;2022-12-07T10:25:53;100820.31;;;20.12
41654;BMP280;30790;52.030;7.110;2022-12-07T10:28:21;100809.41;;;20.12
41654;BMP280;30790;52.030;7.110;2022-12-07T10:31:14;100809.06;;;20.08
41654;BMP280;30790;52.030;7.110;2022-12-07T10:33:58;100807.41;;;20.07
41654;BMP280;30790;52.030;7.110;2022-12-07T10:36:25;100810.13;;;20.07
41654;BMP280;30790;52.030;7.110;2022-12-07T10:38:52;100799.72;;;20.04
41654;BMP280;30790;52.030;7.110;2022-12-07T10:41:18;100798.31;;;20.01
41654;BMP280;30790;52.030;7.110;2022-12-07T10:44:03;100797.81;;;20.04
41654;BMP280;30790;52.030;7.110;2022-12-07T10:49:37;100798.78;;;19.98
41654;BMP280;30790;52.030;7.110;2022-12-07T10:52:18;100794.97;;;19.99
41654;BMP280;30790;52.030;7.110;2022-12-07T10:55:08;100796.03;;;19.98
41654;BMP280;30790;52.030;7.110;2022-12-07T11:06:05;100781.50;;;19.93
41654;BMP280;30790;52.030;7.110;2022-12-07T11:14:10;100769.19;;;19.90
41654;BMP280;30790;52.030;7.110;2022-12-07T11:21:56;100759.50;;;19.83
41654;BMP280;30790;52.030;7.110;2022-12-07T11:24:50;100750.84;;;19.86
41654;BMP280;30790;52.030;7.110;2022-12-07T11:27:40;100753.00;;;19.84
41654;BMP280;30790;52.030;7.110;2022-12-07T11:30:22;100751.09;;;19.84
41654;BMP280;30790;52.030;7.110;2022-12-07T11:32:58;100757.59;;;19.83
41654;BMP280;30790;52.030;7.110;2022-12-07T11:38:17;100742.09;;;19.84
41654;BMP280;30790;52.030;7.110;2022-12-07T11:40:51;100746.13;;;19.81
41654;BMP280;30790;52.030;7.110;2022-12-07T11:43:32;100743.66;;;19.80
41654;BMP280;30790;52.030;7.110;2022-12-07T11:46:08;100754.31;;;19.81
41654;BMP280;30790;52.030;7.110;2022-12-07T11:49:09;100751.22;;;19.78
41654;BMP280;30790;52.030;7.110;2022-12-07T11:51:34;100739.28;;;19.79
41654;BMP280;30790;52.030;7.110;2022-12-07T11:54:04;100735.13;;;19.76
41654;BMP280;30790;52.030;7.110;2022-12-07T11:56:35;100738.44;;;19.78
41654;BMP280;30790;52.030;7.110;2022-12-07T12:00:15;100722.84;;;19.73
41654;BMP280;30790;52.030;7.110;2022-12-07T12:02:19;100720.44;;;19.77
41654;BMP280;30790;52.030;7.110;2022-12-07T12:04:58;100717.13;;;19.75
41654;BMP280;30790;52.030;7.110;2022-12-07T12:07:26;100728.63;;;19.77
41654;BMP280;30790;52.030;7.110;2022-12-07T12:10:03;100718.78;;;19.76
41654;BMP280;30790;52.030;7.110;2022-12-07T12:13:02;100715.59;;;19.79
41654;BMP280;30790;52.030;7.110;2022-12-07T12:19:16;100717.47;;;19.79
41654;BMP280;30790;52.030;7.110;2022-12-07T12:21:47;100717.00;;;19.70
41654;BMP280;30790;52.030;7.110;2022-12-07T12:24:18;100718.22;;;19.62
41654;BMP280;30790;52.030;7.110;2022-12-07T12:26:53;100708.06;;;19.58
41654;BMP280;30790;52.030;7.110;2022-12-07T12:29:42;100716.44;;;19.68
41654;BMP280;30790;52.030;7.110;2022-12-07T12:32:17;100706.38;;;19.68
41654;BMP280;30790;52.030;7.110;2022-12-07T12:42:49;100716.56;;;19.73
41654;BMP280;30790;52.030;7.110;2022-12-07T12:48:00;100704.22;;;19.70
41654;BMP280;30790;52.030;7.110;2022-12-07T12:52:58;100691.22;;;19.72
41654;BMP280;30790;52.030;7.110;2022-12-07T12:55:43;100693.09;;;19.72
41654;BMP280;30790;52.030;7.110;2022-12-07T13:00:44;100680.31;;;19.72
41654;BMP280;30790;52.030;7.110;2022-12-07T13:03:23;100684.69;;;19.73
41654;BMP280;30790;52.030;7.110;2022-12-07T13:06:28;100690.34;;;19.72
41654;BMP280;30790;52.030;7.110;2022-12-07T13:08:58;100687.88;;;19.70
41654;BMP280;30790;52.030;7.110;2022-12-07T13:11:41;100677.22;;;19.69
41654;BMP280;30790;52.030;7.110;2022-12-07T13:14:43;100675.56;;;19.68
41654;BMP280;30790;52.030;7.110;2022-12-07T13:20:02;100671.44;;;19.65
41654;BMP280;30790;52.030;7.110;2022-12-07T13:22:39;100662.44;;;19.65
41654;BMP280;30790;52.030;7.110;2022-12-07T13:27:41;100667.91;;;19.65
41654;BMP280;30790;52.030;7.110;2022-12-07T13:30:14;100665.16;;;19.65
41654;BMP280;30790;52.030;7.110;2022-12-07T13:32:40;100655.50;;;19.57
41654;BMP280;30790;52.030;7.110;2022-12-07T13:37:53;100655.84;;;19.61
41654;BMP280;30790;52.030;7.110;2022-12-07T13:40:21;100658.41;;;19.67
41654;BMP280;30790;52.030;7.110;2022-12-07T13:42:46;100648.25;;;19.63
41654;BMP280;30790;52.030;7.110;2022-12-07T13:45:24;100654.03;;;19.66
41654;BMP280;30790;52.030;7.110;2022-12-07T13:48:15;100650.47;;;19.66
41654;BMP280;30790;52.030;7.110;2022-12-07T13:50:52;100645.03;;;19.66
41654;BMP280;30790;52.030;7.110;2022-12-07T13:53:18;100647.19;;;19.64
41654;BMP280;30790;52.030;7.110;2022-12-07T13:55:45;100643.38;;;19.65
41654;BMP280;30790;52.030;7.110;2022-12-07T13:58:11;100648.84;;;19.65
41654;BMP280;30790;52.030;7.110;2022-12-07T14:00:36;100637.25;;;19.58
41654;BMP280;30790;52.030;7.110;2022-12-07T14:08:22;100626.97;;;19.60
41654;BMP280;30790;52.030;7.110;2022-12-07T14:13:35;100624.81;;;19.62
41654;BMP280;30790;52.030;7.110;2022-12-07T14:16:02;100622.34;;;19.60
41654;BMP280;30790;52.030;7.110;2022-12-07T14:18:38;100627.53;;;19.62
41654;BMP280;30790;52.030;7.110;2022-12-07T14:23:29;100620.69;;;19.59
41654;BMP280;30790;52.030;7.110;2022-12-07T14:26:05;100624.22;;;19.60
41654;BMP280;30790;52.030;7.110;2022-12-07T14:28:34;100622.34;;;19.60
41654;BMP280;30790;52.030;7.110;2022-12-07T14:31:01;100625.31;;;19.59
41654;BMP280;30790;52.030;7.110;2022-12-07T14:33:27;100625.31;;;19.59
41654;BMP280;30790;52.030;7.110;2022-12-07T14:35:52;100621.50;;;19.60
41654;BMP280;30790;52.030;7.110;2022-12-07T14:38:23;100613.91;;;19.62
41654;BMP280;30790;52.030;7.110;2022-12-07T14:40:53;100611.50;;;19.77
41654;BMP280;30790;52.030;7.110;2022-12-07T14:43:19;100613.91;;;19.90
41654;BMP280;30790;52.030;7.110;2022-12-07T14:45:45;100613.59;;;20.03
41654;BMP280;30790;52.030;7.110;2022-12-07T14:48:12;100617.66;;;20.18
41654;BMP280;30790;52.030;7.110;2022-12-07T14:50:42;100610.13;;;20.25
41654;BMP280;30790;52.030;7.110;2022-12-07T14:53:14;100607.84;;;20.33
41654;BMP280;30790;52.030;7.110;2022-12-07T14:55:40;100599.91;;;20.32
41654;BMP280;30790;52.030;7.110;2022-12-07T14:58:05;100601.88;;;20.36
41654;BMP280;30790;52.030;7.110;2022-12-07T15:00:30;100599.97;;;20.37
41654;BMP280;30790;52.030;7.110;2022-12-07T15:02:56;100597.44;;;20.47
41654;BMP280;30790;52.030;7.110;2022-12-07T15:05:22;100596.34;;;20.48
41654;BMP280;30790;52.030;7.110;2022-12-07T15:07:48;100596.88;;;20.45
41654;BMP280;30790;52.030;7.110;2022-12-07T15:10:22;100593.69;;;20.53
41654;BMP280;30790;52.030;7.110;2022-12-07T15:12:47;100586.59;;;20.52
41654;BMP280;30790;52.030;7.110;2022-12-07T15:15:13;100594.06;;;20.57
41654;BMP280;30790;52.030;7.110;2022-12-07T15:17:38;100586.44;;;20.59
41654;BMP280;30790;52.030;7.110;2022-12-07T15:20:05;100589.50;;;20.62
41654;BMP280;30790;52.030;7.110;2022-12-07T15:22:30;100596.34;;;20.65
41654;BMP280;30790;52.030;7.110;2022-12-07T15:24:56;100589.25;;;20.64
41654;BMP280;30790;52.030;7.110;2022-12-07T15:27:22;100585.69;;;20.63
41654;BMP280;30790;52.030;7.110;2022-12-07T15:29:47;100584.88;;;20.63
41654;BMP280;30790;52.030;7.110;2022-12-07T15:32:12;100575.53;;;20.59
41654;BMP280;30790;52.030;7.110;2022-12-07T15:34:38;100574.97;;;20.57
41654;BMP280;30790;52.030;7.110;2022-12-07T15:37:03;100588.09;;;20.60
41654;BMP280;30790;52.030;7.110;2022-12-07T15:39:28;100585.06;;;20.56
41654;BMP280;30790;52.030;7.110;2022-12-07T15:41:54;100586.94;;;20.56